sensor_id;sensor_type;location;lat;lon;timestamp;temperature;humidity
51661;DHT22;37741;49.748;8.490;2024-01-06T00:02:24;6.20;89.80
51661;DHT22;37741;49.748;8.490;2024-01-06T00:04:51;6.20;89.80
51661;DHT22;37741;49.748;8.490;2024-01-06T00:07:16;6.20;89.80
51661;DHT22;37741;49.748;8.490;2024-01-06T00:09:42;6.20;89.80
51661;DHT22;37741;49.748;8.490;2024-01-06T00:12:08;6.20;89.80
51661;DHT22;37741;49.748;8.490;2024-01-06T00:14:33;6.10;89.70
51661;DHT22;37741;49.748;8.490;2024-01-06T00:16:59;6.10;89.70
51661;DHT22;37741;49.748;8.490;2024-01-06T00:19:25;6.10;89.70
51661;DHT22;37741;49.748;8.490;2024-01-06T00:21:50;6.10;89.70
51661;DHT22;37741;49.748;8.490;2024-01-06T00:24:16;6.10;89.60
51661;DHT22;37741;49.748;8.490;2024-01-06T00:26:42;6.10;89.60
51661;DHT22;37741;49.748;8.490;2024-01-06T00:29:07;6.10;89.60
51661;DHT22;37741;49.748;8.490;2024-01-06T00:31:33;6.00;89.50
51661;DHT22;37741;49.748;8.490;2024-01-06T00:33:59;6.00;89.50
51661;DHT22;37741;49.748;8.490;2024-01-06T00:36:24;6.00;89.50
51661;DHT22;37741;49.748;8.490;2024-01-06T00:38:50;6.00;89.60
51661;DHT22;37741;49.748;8.490;2024-01-06T00:41:15;6.00;89.60
51661;DHT22;37741;49.748;8.490;2024-01-06T00:43:41;6.00;89.60
51661;DHT22;37741;49.748;8.490;2024-01-06T00:46:06;6.00;89.60
51661;DHT22;37741;49.748;8.490;2024-01-06T00:48:33;6.00;89.70
51661;DHT22;37741;49.748;8.490;2024-01-06T00:50:58;6.00;89.70
51661;DHT22;37741;49.748;8.490;2024-01-06T00:53:24;5.90;89.70
51661;DHT22;37741;49.748;8.490;2024-01-06T00:55:49;6.00;89.80
51661;DHT22;37741;49.748;8.490;2024-01-06T00:58:15;5.90;90.10
51661;DHT22;37741;49.748;8.490;2024-01-06T01:00:41;5.90;89.80
51661;DHT22;37741;49.748;8.490;2024-01-06T01:03:06;5.90;89.80
51661;DHT22;37741;49.748;8.490;2024-01-06T01:05:32;5.90;89.80
51661;DHT22;37741;49.748;8.490;2024-01-06T01:07:58;5.90;89.90
51661;DHT22;37741;49.748;8.490;2024-01-06T01:10:23;5.90;89.90
51661;DHT22;37741;49.748;8.490;2024-01-06T01:12:49;5.90;89.90
51661;DHT22;37741;49.748;8.490;2024-01-06T01:15:14;5.90;89.90
51661;DHT22;37741;49.748;8.490;2024-01-06T01:17:40;5.90;89.90
51661;DHT22;37741;49.748;8.490;2024-01-06T01:20:06;5.90;89.90
51661;DHT22;37741;49.748;8.490;2024-01-06T01:22:32;5.90;89.90
51661;DHT22;37741;49.748;8.490;2024-01-06T01:24:58;5.90;89.90
51661;DHT22;37741;49.748;8.490;2024-01-06T01:27:23;5.90;90.00
51661;DHT22;37741;49.748;8.490;2024-01-06T01:29:49;5.90;90.00
51661;DHT22;37741;49.748;8.490;2024-01-06T01:32:18;5.80;89.90
51661;DHT22;37741;49.748;8.490;2024-01-06T01:34:43;5.90;90.00
51661;DHT22;37741;49.748;8.490;2024-01-06T01:37:09;5.80;89.90
51661;DHT22;37741;49.748;8.490;2024-01-06T01:39:35;5.90;90.00
51661;DHT22;37741;49.748;8.490;2024-01-06T01:42:01;5.80;90.00
51661;DHT22;37741;49.748;8.490;2024-01-06T01:44:26;5.80;90.00
51661;DHT22;37741;49.748;8.490;2024-01-06T01:46:52;5.90;90.00
51661;DHT22;37741;49.748;8.490;2024-01-06T01:49:18;5.80;90.00
51661;DHT22;37741;49.748;8.490;2024-01-06T01:51:43;5.90;90.00
51661;DHT22;37741;49.748;8.490;2024-01-06T01:54:10;5.80;90.00
51661;DHT22;37741;49.748;8.490;2024-01-06T01:56:36;5.90;90.00
51661;DHT22;37741;49.748;8.490;2024-01-06T01:59:12;5.80;90.00
51661;DHT22;37741;49.748;8.490;2024-01-06T02:01:39;5.80;90.00
51661;DHT22;37741;49.748;8.490;2024-01-06T02:04:05;5.80;90.00
51661;DHT22;37741;49.748;8.490;2024-01-06T02:06:30;5.80;90.00
51661;DHT22;37741;49.748;8.490;2024-01-06T02:08:56;5.80;90.00
51661;DHT22;37741;49.748;8.490;2024-01-06T02:11:22;5.80;90.00
51661;DHT22;37741;49.748;8.490;2024-01-06T02:13:47;5.80;90.00
51661;DHT22;37741;49.748;8.490;2024-01-06T02:16:13;5.80;90.00
51661;DHT22;37741;49.748;8.490;2024-01-06T02:18:39;5.80;90.00
51661;DHT22;37741;49.748;8.490;2024-01-06T02:21:06;5.80;90.00
51661;DHT22;37741;49.748;8.490;2024-01-06T02:23:35;5.80;90.10
51661;DHT22;37741;49.748;8.490;2024-01-06T02:26:01;5.80;90.10
51661;DHT22;37741;49.748;8.490;2024-01-06T02:28:27;5.80;90.10
51661;DHT22;37741;49.748;8.490;2024-01-06T02:30:52;5.80;90.10
51661;DHT22;37741;49.748;8.490;2024-01-06T02:33:18;5.80;90.10
51661;DHT22;37741;49.748;8.490;2024-01-06T02:35:45;5.80;90.10
51661;DHT22;37741;49.748;8.490;2024-01-06T02:38:11;5.80;90.10
51661;DHT22;37741;49.748;8.490;2024-01-06T02:40:37;5.80;90.00
51661;DHT22;37741;49.748;8.490;2024-01-06T02:43:02;5.80;90.00
51661;DHT22;37741;49.748;8.490;2024-01-06T02:45:28;5.80;90.00
51661;DHT22;37741;49.748;8.490;2024-01-06T02:47:54;5.90;90.10
51661;DHT22;37741;49.748;8.490;2024-01-06T02:50:19;5.80;90.00
51661;DHT22;37741;49.748;8.490;2024-01-06T02:52:45;5.80;90.00
51661;DHT22;37741;49.748;8.490;2024-01-06T02:55:11;5.80;90.00
51661;DHT22;37741;49.748;8.490;2024-01-06T02:57:37;5.80;90.00
51661;DHT22;37741;49.748;8.490;2024-01-06T03:00:04;5.90;90.00
51661;DHT22;37741;49.748;8.490;2024-01-06T03:02:29;5.80;90.00
51661;DHT22;37741;49.748;8.490;2024-01-06T03:04:55;5.80;90.00
51661;DHT22;37741;49.748;8.490;2024-01-06T03:07:21;5.80;90.00
51661;DHT22;37741;49.748;8.490;2024-01-06T03:09:47;5.80;90.00
51661;DHT22;37741;49.748;8.490;2024-01-06T03:12:13;5.80;90.10
51661;DHT22;37741;49.748;8.490;2024-01-06T03:14:38;5.90;90.10
51661;DHT22;37741;49.748;8.490;2024-01-06T03:17:04;5.80;90.10
51661;DHT22;37741;49.748;8.490;2024-01-06T03:19:33;5.80;90.10
51661;DHT22;37741;49.748;8.490;2024-01-06T03:21:58;5.80;90.10
51661;DHT22;37741;49.748;8.490;2024-01-06T03:24:25;5.80;90.10
51661;DHT22;37741;49.748;8.490;2024-01-06T03:26:51;5.90;90.10
51661;DHT22;37741;49.748;8.490;2024-01-06T03:29:17;5.80;90.00
51661;DHT22;37741;49.748;8.490;2024-01-06T03:31:43;5.80;90.10
51661;DHT22;37741;49.748;8.490;2024-01-06T03:34:09;5.80;90.10
51661;DHT22;37741;49.748;8.490;2024-01-06T03:36:40;5.90;90.10
51661;DHT22;37741;49.748;8.490;2024-01-06T03:39:06;5.80;90.10
51661;DHT22;37741;49.748;8.490;2024-01-06T03:41:31;5.80;90.10
51661;DHT22;37741;49.748;8.490;2024-01-06T03:43:57;5.80;90.00
51661;DHT22;37741;49.748;8.490;2024-01-06T03:46:23;5.80;90.00
51661;DHT22;37741;49.748;8.490;2024-01-06T03:48:49;5.90;90.10
51661;DHT22;37741;49.748;8.490;2024-01-06T03:51:15;5.90;90.10
51661;DHT22;37741;49.748;8.490;2024-01-06T03:53:40;5.90;90.00
51661;DHT22;37741;49.748;8.490;2024-01-06T03:56:06;5.90;90.00
51661;DHT22;37741;49.748;8.490;2024-01-06T03:58:32;5.90;90.00
51661;DHT22;37741;49.748;8.490;2024-01-06T04:00:57;5.90;90.00
51661;DHT22;37741;49.748;8.490;2024-01-06T04:03:24;5.90;90.00
51661;DHT22;37741;49.748;8.490;2024-01-06T04:05:50;5.90;90.00
51661;DHT22;37741;49.748;8.490;2024-01-06T04:08:15;5.90;90.00
51661;DHT22;37741;49.748;8.490;2024-01-06T04:10:41;5.90;90.00
51661;DHT22;37741;49.748;8.490;2024-01-06T04:13:08;5.90;90.00
51661;DHT22;37741;49.748;8.490;2024-01-06T04:15:35;5.80;90.30
51661;DHT22;37741;49.748;8.490;2024-01-06T04:18:04;5.90;90.00
51661;DHT22;37741;49.748;8.490;2024-01-06T04:20:33;5.90;90.00
51661;DHT22;37741;49.748;8.490;2024-01-06T04:22:58;5.90;90.00
51661;DHT22;37741;49.748;8.490;2024-01-06T04:25:24;5.90;90.00
51661;DHT22;37741;49.748;8.490;2024-01-06T04:27:50;5.90;90.00
51661;DHT22;37741;49.748;8.490;2024-01-06T04:30:16;5.90;90.00
51661;DHT22;37741;49.748;8.490;2024-01-06T04:32:44;5.90;90.00
51661;DHT22;37741;49.748;8.490;2024-01-06T04:35:10;5.90;90.00
51661;DHT22;37741;49.748;8.490;2024-01-06T04:37:36;5.90;90.00
51661;DHT22;37741;49.748;8.490;2024-01-06T04:40:02;5.80;90.00
51661;DHT22;37741;49.748;8.490;2024-01-06T04:42:27;5.90;90.00
51661;DHT22;37741;49.748;8.490;2024-01-06T04:44:53;5.90;90.00
51661;DHT22;37741;49.748;8.490;2024-01-06T04:47:19;5.90;90.00
51661;DHT22;37741;49.748;8.490;2024-01-06T04:49:45;5.90;90.00
51661;DHT22;37741;49.748;8.490;2024-01-06T04:52:11;5.90;90.00
51661;DHT22;37741;49.748;8.490;2024-01-06T04:54:36;5.90;90.00
51661;DHT22;37741;49.748;8.490;2024-01-06T04:57:02;5.90;90.00
51661;DHT22;37741;49.748;8.490;2024-01-06T04:59:29;5.90;90.10
51661;DHT22;37741;49.748;8.490;2024-01-06T05:01:57;5.90;90.10
51661;DHT22;37741;49.748;8.490;2024-01-06T05:04:23;5.90;90.10
51661;DHT22;37741;49.748;8.490;2024-01-06T05:06:49;5.90;90.10
51661;DHT22;37741;49.748;8.490;2024-01-06T05:09:15;5.90;90.10
51661;DHT22;37741;49.748;8.490;2024-01-06T05:11:43;5.90;90.10
51661;DHT22;37741;49.748;8.490;2024-01-06T05:14:09;5.90;90.10
51661;DHT22;37741;49.748;8.490;2024-01-06T05:16:34;5.90;90.10
51661;DHT22;37741;49.748;8.490;2024-01-06T05:19:00;5.90;90.10
51661;DHT22;37741;49.748;8.490;2024-01-06T05:21:25;5.90;90.00
51661;DHT22;37741;49.748;8.490;2024-01-06T05:23:51;5.90;90.10
51661;DHT22;37741;49.748;8.490;2024-01-06T05:26:16;5.90;90.00
51661;DHT22;37741;49.748;8.490;2024-01-06T05:28:42;5.90;90.10
51661;DHT22;37741;49.748;8.490;2024-01-06T05:31:08;5.90;90.10
51661;DHT22;37741;49.748;8.490;2024-01-06T05:33:34;5.90;90.10
51661;DHT22;37741;49.748;8.490;2024-01-06T05:35:59;5.90;90.10
51661;DHT22;37741;49.748;8.490;2024-01-06T05:38:25;5.90;90.10
51661;DHT22;37741;49.748;8.490;2024-01-06T05:40:51;5.80;90.30
51661;DHT22;37741;49.748;8.490;2024-01-06T05:43:16;5.90;90.10
51661;DHT22;37741;49.748;8.490;2024-01-06T05:45:42;5.90;90.10
51661;DHT22;37741;49.748;8.490;2024-01-06T05:48:11;5.90;90.10
51661;DHT22;37741;49.748;8.490;2024-01-06T05:50:40;5.90;90.10
51661;DHT22;37741;49.748;8.490;2024-01-06T05:53:07;5.90;90.10
51661;DHT22;37741;49.748;8.490;2024-01-06T05:55:33;5.90;90.10
51661;DHT22;37741;49.748;8.490;2024-01-06T05:57:58;5.90;90.10
51661;DHT22;37741;49.748;8.490;2024-01-06T06:00:24;5.90;90.10
51661;DHT22;37741;49.748;8.490;2024-01-06T06:02:50;5.90;90.10
51661;DHT22;37741;49.748;8.490;2024-01-06T06:05:15;5.90;90.10
51661;DHT22;37741;49.748;8.490;2024-01-06T06:07:41;5.90;90.10
51661;DHT22;37741;49.748;8.490;2024-01-06T06:10:09;5.90;90.10
51661;DHT22;37741;49.748;8.490;2024-01-06T06:12:35;5.90;90.10
51661;DHT22;37741;49.748;8.490;2024-01-06T06:15:01;5.90;90.10
51661;DHT22;37741;49.748;8.490;2024-01-06T06:17:29;5.90;90.00
51661;DHT22;37741;49.748;8.490;2024-01-06T06:19:54;5.90;90.00
51661;DHT22;37741;49.748;8.490;2024-01-06T06:22:20;5.90;90.10
51661;DHT22;37741;49.748;8.490;2024-01-06T06:24:47;5.90;90.10
51661;DHT22;37741;49.748;8.490;2024-01-06T06:27:12;5.90;90.10
51661;DHT22;37741;49.748;8.490;2024-01-06T06:29:38;5.90;90.10
51661;DHT22;37741;49.748;8.490;2024-01-06T06:32:04;5.90;90.10
51661;DHT22;37741;49.748;8.490;2024-01-06T06:34:29;5.90;90.10
51661;DHT22;37741;49.748;8.490;2024-01-06T06:36:55;5.90;90.10
51661;DHT22;37741;49.748;8.490;2024-01-06T06:39:20;5.90;90.10
51661;DHT22;37741;49.748;8.490;2024-01-06T06:41:46;5.90;90.10
51661;DHT22;37741;49.748;8.490;2024-01-06T06:44:12;5.90;90.10
51661;DHT22;37741;49.748;8.490;2024-01-06T06:46:37;5.90;90.00
51661;DHT22;37741;49.748;8.490;2024-01-06T06:49:03;5.90;90.10
51661;DHT22;37741;49.748;8.490;2024-01-06T06:51:29;5.90;90.10
51661;DHT22;37741;49.748;8.490;2024-01-06T06:53:55;5.90;90.00
51661;DHT22;37741;49.748;8.490;2024-01-06T06:56:22;5.90;90.10
51661;DHT22;37741;49.748;8.490;2024-01-06T06:58:48;5.90;90.00
51661;DHT22;37741;49.748;8.490;2024-01-06T07:01:14;5.90;90.10
51661;DHT22;37741;49.748;8.490;2024-01-06T07:03:40;5.90;90.10
51661;DHT22;37741;49.748;8.490;2024-01-06T07:06:07;5.90;90.10
51661;DHT22;37741;49.748;8.490;2024-01-06T07:08:32;5.90;90.10
51661;DHT22;37741;49.748;8.490;2024-01-06T07:10:58;5.90;90.00
51661;DHT22;37741;49.748;8.490;2024-01-06T07:13:23;5.90;90.00
51661;DHT22;37741;49.748;8.490;2024-01-06T07:15:49;5.90;90.00
51661;DHT22;37741;49.748;8.490;2024-01-06T07:18:15;5.90;90.10
51661;DHT22;37741;49.748;8.490;2024-01-06T07:20:41;5.90;90.30
51661;DHT22;37741;49.748;8.490;2024-01-06T07:23:06;5.90;90.00
51661;DHT22;37741;49.748;8.490;2024-01-06T07:25:32;5.90;90.10
51661;DHT22;37741;49.748;8.490;2024-01-06T07:27:57;5.90;90.10
51661;DHT22;37741;49.748;8.490;2024-01-06T07:30:23;5.90;90.10
51661;DHT22;37741;49.748;8.490;2024-01-06T07:32:49;5.90;90.10
51661;DHT22;37741;49.748;8.490;2024-01-06T07:35:17;5.90;90.10
51661;DHT22;37741;49.748;8.490;2024-01-06T07:37:43;5.90;90.10
51661;DHT22;37741;49.748;8.490;2024-01-06T07:40:09;5.90;90.10
51661;DHT22;37741;49.748;8.490;2024-01-06T07:42:35;5.90;90.10
51661;DHT22;37741;49.748;8.490;2024-01-06T07:45:00;5.90;90.10
51661;DHT22;37741;49.748;8.490;2024-01-06T07:47:27;5.90;90.10
51661;DHT22;37741;49.748;8.490;2024-01-06T07:49:53;5.90;90.10
51661;DHT22;37741;49.748;8.490;2024-01-06T07:52:18;5.90;90.10
51661;DHT22;37741;49.748;8.490;2024-01-06T07:54:44;5.90;90.10
51661;DHT22;37741;49.748;8.490;2024-01-06T07:57:09;5.90;90.10
51661;DHT22;37741;49.748;8.490;2024-01-06T07:59:36;5.90;90.10
51661;DHT22;37741;49.748;8.490;2024-01-06T08:02:02;5.90;90.10
51661;DHT22;37741;49.748;8.490;2024-01-06T08:04:27;5.90;90.10
51661;DHT22;37741;49.748;8.490;2024-01-06T08:06:53;5.90;90.10
51661;DHT22;37741;49.748;8.490;2024-01-06T08:09:19;5.90;90.10
51661;DHT22;37741;49.748;8.490;2024-01-06T08:11:45;5.90;90.10
51661;DHT22;37741;49.748;8.490;2024-01-06T08:14:13;5.90;90.10
51661;DHT22;37741;49.748;8.490;2024-01-06T08:16:39;6.00;90.10
51661;DHT22;37741;49.748;8.490;2024-01-06T08:19:04;5.90;90.10
51661;DHT22;37741;49.748;8.490;2024-01-06T08:21:31;5.90;90.10
51661;DHT22;37741;49.748;8.490;2024-01-06T08:23:56;5.90;90.10
51661;DHT22;37741;49.748;8.490;2024-01-06T08:26:22;5.90;90.10
51661;DHT22;37741;49.748;8.490;2024-01-06T08:28:47;5.90;90.10
51661;DHT22;37741;49.748;8.490;2024-01-06T08:31:13;5.90;90.10
51661;DHT22;37741;49.748;8.490;2024-01-06T08:33:39;5.90;90.10
51661;DHT22;37741;49.748;8.490;2024-01-06T08:36:05;5.90;90.10
51661;DHT22;37741;49.748;8.490;2024-01-06T08:38:31;6.00;90.10
51661;DHT22;37741;49.748;8.490;2024-01-06T08:40:57;5.90;90.10
51661;DHT22;37741;49.748;8.490;2024-01-06T08:43:22;5.90;90.10
51661;DHT22;37741;49.748;8.490;2024-01-06T08:45:48;6.00;90.10
51661;DHT22;37741;49.748;8.490;2024-01-06T08:48:14;6.00;90.10
51661;DHT22;37741;49.748;8.490;2024-01-06T08:50:40;5.90;90.10
51661;DHT22;37741;49.748;8.490;2024-01-06T08:53:06;6.00;90.10
51661;DHT22;37741;49.748;8.490;2024-01-06T08:55:31;6.00;90.10
51661;DHT22;37741;49.748;8.490;2024-01-06T08:57:57;6.00;90.10
51661;DHT22;37741;49.748;8.490;2024-01-06T09:00:22;6.00;90.10
51661;DHT22;37741;49.748;8.490;2024-01-06T09:02:48;6.00;90.10
51661;DHT22;37741;49.748;8.490;2024-01-06T09:05:14;6.00;90.10
51661;DHT22;37741;49.748;8.490;2024-01-06T09:07:40;6.00;90.10
51661;DHT22;37741;49.748;8.490;2024-01-06T09:10:06;6.00;90.10
51661;DHT22;37741;49.748;8.490;2024-01-06T09:12:32;6.00;90.10
51661;DHT22;37741;49.748;8.490;2024-01-06T09:14:58;6.00;90.10
51661;DHT22;37741;49.748;8.490;2024-01-06T09:17:23;6.00;90.10
51661;DHT22;37741;49.748;8.490;2024-01-06T09:19:49;6.00;90.10
51661;DHT22;37741;49.748;8.490;2024-01-06T09:22:14;6.00;90.10
51661;DHT22;37741;49.748;8.490;2024-01-06T09:24:40;6.00;90.10
51661;DHT22;37741;49.748;8.490;2024-01-06T09:27:06;6.00;90.10
51661;DHT22;37741;49.748;8.490;2024-01-06T09:29:31;6.00;90.10
51661;DHT22;37741;49.748;8.490;2024-01-06T09:31:57;6.00;90.10
51661;DHT22;37741;49.748;8.490;2024-01-06T09:34:22;6.10;90.10
51661;DHT22;37741;49.748;8.490;2024-01-06T09:36:48;6.10;90.10
51661;DHT22;37741;49.748;8.490;2024-01-06T09:39:13;6.10;90.10
51661;DHT22;37741;49.748;8.490;2024-01-06T09:41:39;6.10;90.10
51661;DHT22;37741;49.748;8.490;2024-01-06T09:44:05;6.10;90.10
51661;DHT22;37741;49.748;8.490;2024-01-06T09:46:31;6.10;90.10
51661;DHT22;37741;49.748;8.490;2024-01-06T09:48:57;6.10;90.10
51661;DHT22;37741;49.748;8.490;2024-01-06T09:51:24;6.10;90.10
51661;DHT22;37741;49.748;8.490;2024-01-06T09:54:01;6.10;90.10
51661;DHT22;37741;49.748;8.490;2024-01-06T09:56:29;6.10;90.10
51661;DHT22;37741;49.748;8.490;2024-01-06T09:58:55;6.10;90.10
51661;DHT22;37741;49.748;8.490;2024-01-06T10:01:21;6.10;90.10
51661;DHT22;37741;49.748;8.490;2024-01-06T10:03:48;6.10;90.10
51661;DHT22;37741;49.748;8.490;2024-01-06T10:06:14;6.10;90.10
51661;DHT22;37741;49.748;8.490;2024-01-06T10:08:42;6.10;90.10
51661;DHT22;37741;49.748;8.490;2024-01-06T10:11:08;6.10;90.10
51661;DHT22;37741;49.748;8.490;2024-01-06T10:13:36;6.10;90.10
51661;DHT22;37741;49.748;8.490;2024-01-06T10:16:06;6.20;90.10
51661;DHT22;37741;49.748;8.490;2024-01-06T10:18:32;6.20;90.10
51661;DHT22;37741;49.748;8.490;2024-01-06T10:20:58;6.20;90.10
51661;DHT22;37741;49.748;8.490;2024-01-06T10:23:25;6.20;90.10
51661;DHT22;37741;49.748;8.490;2024-01-06T10:25:53;6.20;90.10
51661;DHT22;37741;49.748;8.490;2024-01-06T10:28:20;6.20;90.10
51661;DHT22;37741;49.748;8.490;2024-01-06T10:30:45;6.20;90.10
51661;DHT22;37741;49.748;8.490;2024-01-06T10:33:12;6.20;90.10
51661;DHT22;37741;49.748;8.490;2024-01-06T10:35:39;6.20;90.10
51661;DHT22;37741;49.748;8.490;2024-01-06T10:38:05;6.20;90.10
51661;DHT22;37741;49.748;8.490;2024-01-06T10:40:32;6.20;90.10
51661;DHT22;37741;49.748;8.490;2024-01-06T10:42:57;6.20;90.10
51661;DHT22;37741;49.748;8.490;2024-01-06T10:45:24;6.20;90.10
51661;DHT22;37741;49.748;8.490;2024-01-06T10:47:50;6.20;90.10
51661;DHT22;37741;49.748;8.490;2024-01-06T10:50:19;6.20;90.10
51661;DHT22;37741;49.748;8.490;2024-01-06T10:52:47;6.20;90.10
51661;DHT22;37741;49.748;8.490;2024-01-06T10:55:15;6.20;90.10
51661;DHT22;37741;49.748;8.490;2024-01-06T10:57:46;6.30;90.10
51661;DHT22;37741;49.748;8.490;2024-01-06T11:00:12;6.30;90.10
51661;DHT22;37741;49.748;8.490;2024-01-06T11:02:39;6.30;90.10
51661;DHT22;37741;49.748;8.490;2024-01-06T11:05:05;6.30;90.10
51661;DHT22;37741;49.748;8.490;2024-01-06T11:07:36;6.30;90.10
51661;DHT22;37741;49.748;8.490;2024-01-06T11:10:12;6.30;90.10
51661;DHT22;37741;49.748;8.490;2024-01-06T11:12:42;6.30;90.10
51661;DHT22;37741;49.748;8.490;2024-01-06T11:15:08;6.30;90.10
51661;DHT22;37741;49.748;8.490;2024-01-06T11:17:54;6.30;90.30
51661;DHT22;37741;49.748;8.490;2024-01-06T11:20:21;6.40;90.10
51661;DHT22;37741;49.748;8.490;2024-01-06T11:22:48;6.40;90.10
51661;DHT22;37741;49.748;8.490;2024-01-06T11:25:15;6.40;90.10
51661;DHT22;37741;49.748;8.490;2024-01-06T11:27:43;6.40;90.10
51661;DHT22;37741;49.748;8.490;2024-01-06T11:30:24;6.40;90.10
51661;DHT22;37741;49.748;8.490;2024-01-06T11:32:54;6.40;90.10
51661;DHT22;37741;49.748;8.490;2024-01-06T11:35:21;6.40;90.10
51661;DHT22;37741;49.748;8.490;2024-01-06T11:42:47;6.40;90.10
51661;DHT22;37741;49.748;8.490;2024-01-06T11:45:14;6.40;90.10
51661;DHT22;37741;49.748;8.490;2024-01-06T11:47:47;6.40;90.10
51661;DHT22;37741;49.748;8.490;2024-01-06T11:50:13;6.50;90.10
51661;DHT22;37741;49.748;8.490;2024-01-06T11:52:39;6.50;90.10
51661;DHT22;37741;49.748;8.490;2024-01-06T11:55:05;6.50;90.10
51661;DHT22;37741;49.748;8.490;2024-01-06T11:57:34;6.50;90.10
51661;DHT22;37741;49.748;8.490;2024-01-06T12:00:00;6.50;90.10
51661;DHT22;37741;49.748;8.490;2024-01-06T12:02:25;6.50;90.10
51661;DHT22;37741;49.748;8.490;2024-01-06T12:04:52;6.60;90.10
51661;DHT22;37741;49.748;8.490;2024-01-06T12:07:19;6.60;90.10
51661;DHT22;37741;49.748;8.490;2024-01-06T12:09:50;6.60;90.10
51661;DHT22;37741;49.748;8.490;2024-01-06T12:12:16;6.60;90.10
51661;DHT22;37741;49.748;8.490;2024-01-06T12:14:42;6.60;90.00
51661;DHT22;37741;49.748;8.490;2024-01-06T12:17:09;6.60;90.00
51661;DHT22;37741;49.748;8.490;2024-01-06T12:19:34;6.60;90.00
51661;DHT22;37741;49.748;8.490;2024-01-06T12:22:01;6.70;90.00
51661;DHT22;37741;49.748;8.490;2024-01-06T12:24:28;6.70;90.00
51661;DHT22;37741;49.748;8.490;2024-01-06T12:26:56;6.70;90.00
51661;DHT22;37741;49.748;8.490;2024-01-06T12:29:22;6.70;90.00
51661;DHT22;37741;49.748;8.490;2024-01-06T12:31:48;6.70;90.00
51661;DHT22;37741;49.748;8.490;2024-01-06T12:34:13;6.70;90.00
51661;DHT22;37741;49.748;8.490;2024-01-06T12:36:41;6.70;90.00
51661;DHT22;37741;49.748;8.490;2024-01-06T12:39:11;6.70;90.00
51661;DHT22;37741;49.748;8.490;2024-01-06T12:41:43;6.70;90.00
51661;DHT22;37741;49.748;8.490;2024-01-06T12:44:09;6.70;90.00
51661;DHT22;37741;49.748;8.490;2024-01-06T12:46:35;6.80;90.00
51661;DHT22;37741;49.748;8.490;2024-01-06T12:49:01;6.80;90.00
51661;DHT22;37741;49.748;8.490;2024-01-06T12:51:26;6.80;90.00
51661;DHT22;37741;49.748;8.490;2024-01-06T12:53:52;6.80;90.00
51661;DHT22;37741;49.748;8.490;2024-01-06T12:56:17;6.80;90.00
51661;DHT22;37741;49.748;8.490;2024-01-06T12:58:43;6.80;89.90
51661;DHT22;37741;49.748;8.490;2024-01-06T13:01:09;6.80;89.90
51661;DHT22;37741;49.748;8.490;2024-01-06T13:03:35;6.90;90.00
51661;DHT22;37741;49.748;8.490;2024-01-06T13:06:01;6.90;90.00
51661;DHT22;37741;49.748;8.490;2024-01-06T13:08:27;6.90;89.90
51661;DHT22;37741;49.748;8.490;2024-01-06T13:10:56;6.80;89.80
51661;DHT22;37741;49.748;8.490;2024-01-06T13:13:22;6.80;89.80
51661;DHT22;37741;49.748;8.490;2024-01-06T13:15:47;6.90;89.90
51661;DHT22;37741;49.748;8.490;2024-01-06T13:18:13;6.90;89.80
51661;DHT22;37741;49.748;8.490;2024-01-06T13:20:39;6.90;89.80
51661;DHT22;37741;49.748;8.490;2024-01-06T13:23:07;6.90;89.80
51661;DHT22;37741;49.748;8.490;2024-01-06T13:25:33;6.90;89.80
51661;DHT22;37741;49.748;8.490;2024-01-06T13:27:58;7.00;89.80
51661;DHT22;37741;49.748;8.490;2024-01-06T13:30:25;6.90;89.80
51661;DHT22;37741;49.748;8.490;2024-01-06T13:32:53;6.90;89.80
51661;DHT22;37741;49.748;8.490;2024-01-06T13:35:23;6.90;89.90
51661;DHT22;37741;49.748;8.490;2024-01-06T13:37:52;6.90;89.90
51661;DHT22;37741;49.748;8.490;2024-01-06T13:40:18;6.90;89.90
51661;DHT22;37741;49.748;8.490;2024-01-06T13:42:51;7.00;90.00
51661;DHT22;37741;49.748;8.490;2024-01-06T13:45:18;6.90;89.90
51661;DHT22;37741;49.748;8.490;2024-01-06T13:47:44;7.00;89.90
51661;DHT22;37741;49.748;8.490;2024-01-06T13:50:15;7.00;89.90
51661;DHT22;37741;49.748;8.490;2024-01-06T13:52:41;7.00;89.90
51661;DHT22;37741;49.748;8.490;2024-01-06T13:55:07;7.00;89.90
51661;DHT22;37741;49.748;8.490;2024-01-06T13:57:34;7.00;89.90
51661;DHT22;37741;49.748;8.490;2024-01-06T14:00:00;7.00;89.80
51661;DHT22;37741;49.748;8.490;2024-01-06T14:02:25;7.00;89.80
51661;DHT22;37741;49.748;8.490;2024-01-06T14:04:54;7.00;89.80
51661;DHT22;37741;49.748;8.490;2024-01-06T14:07:20;7.00;89.80
51661;DHT22;37741;49.748;8.490;2024-01-06T14:09:47;7.00;89.80
51661;DHT22;37741;49.748;8.490;2024-01-06T14:12:12;7.00;89.70
51661;DHT22;37741;49.748;8.490;2024-01-06T14:14:39;7.00;89.70
51661;DHT22;37741;49.748;8.490;2024-01-06T14:17:05;7.00;89.70
51661;DHT22;37741;49.748;8.490;2024-01-06T14:19:30;7.00;89.60
51661;DHT22;37741;49.748;8.490;2024-01-06T14:21:56;7.00;89.60
51661;DHT22;37741;49.748;8.490;2024-01-06T14:24:22;7.00;89.60
51661;DHT22;37741;49.748;8.490;2024-01-06T14:26:51;7.00;89.60
51661;DHT22;37741;49.748;8.490;2024-01-06T14:29:18;7.00;89.60
51661;DHT22;37741;49.748;8.490;2024-01-06T14:31:44;7.00;89.60
51661;DHT22;37741;49.748;8.490;2024-01-06T14:34:10;7.00;89.60
51661;DHT22;37741;49.748;8.490;2024-01-06T14:36:36;7.00;89.70
51661;DHT22;37741;49.748;8.490;2024-01-06T14:39:02;7.00;89.70
51661;DHT22;37741;49.748;8.490;2024-01-06T14:41:29;7.00;89.70
51661;DHT22;37741;49.748;8.490;2024-01-06T14:43:55;7.00;89.70
51661;DHT22;37741;49.748;8.490;2024-01-06T14:46:21;7.00;89.70
51661;DHT22;37741;49.748;8.490;2024-01-06T14:48:46;7.00;89.70
51661;DHT22;37741;49.748;8.490;2024-01-06T14:51:12;7.00;89.60
51661;DHT22;37741;49.748;8.490;2024-01-06T14:53:38;7.10;89.70
51661;DHT22;37741;49.748;8.490;2024-01-06T14:56:04;7.00;89.60
51661;DHT22;37741;49.748;8.490;2024-01-06T14:58:30;7.00;89.60
51661;DHT22;37741;49.748;8.490;2024-01-06T15:00:55;7.00;89.60
51661;DHT22;37741;49.748;8.490;2024-01-06T15:03:21;7.00;89.60
51661;DHT22;37741;49.748;8.490;2024-01-06T15:05:49;7.10;89.60
51661;DHT22;37741;49.748;8.490;2024-01-06T15:08:14;7.00;89.60
51661;DHT22;37741;49.748;8.490;2024-01-06T15:10:40;7.00;89.60
51661;DHT22;37741;49.748;8.490;2024-01-06T15:13:05;7.00;89.60
51661;DHT22;37741;49.748;8.490;2024-01-06T15:15:31;7.00;89.60
51661;DHT22;37741;49.748;8.490;2024-01-06T15:17:57;7.00;89.60
51661;DHT22;37741;49.748;8.490;2024-01-06T15:20:22;7.00;89.60
51661;DHT22;37741;49.748;8.490;2024-01-06T15:22:48;7.00;89.60
51661;DHT22;37741;49.748;8.490;2024-01-06T15:25:14;7.00;89.60
51661;DHT22;37741;49.748;8.490;2024-01-06T15:27:40;7.00;89.60
51661;DHT22;37741;49.748;8.490;2024-01-06T15:30:06;7.00;89.60
51661;DHT22;37741;49.748;8.490;2024-01-06T15:32:37;7.00;89.60
51661;DHT22;37741;49.748;8.490;2024-01-06T15:35:04;7.00;89.70
51661;DHT22;37741;49.748;8.490;2024-01-06T15:37:31;7.00;89.70
51661;DHT22;37741;49.748;8.490;2024-01-06T15:39:57;7.00;89.70
51661;DHT22;37741;49.748;8.490;2024-01-06T15:42:22;7.00;89.70
51661;DHT22;37741;49.748;8.490;2024-01-06T15:44:48;7.00;89.70